createdAt,value
2023-04-11T00:04:23.129Z,11.70
2023-04-11T00:09:26.855Z,11.70
2023-04-11T00:14:32.563Z,11.70
2023-04-11T00:19:38.069Z,11.70
2023-04-11T00:24:41.808Z,11.70
2023-04-11T00:29:45.025Z,11.60
2023-04-11T00:34:50.115Z,11.60
2023-04-11T00:39:56.076Z,11.60
2023-04-11T00:45:00.060Z,11.60
2023-04-11T00:50:05.166Z,11.60
2023-04-11T00:55:09.324Z,11.60
2023-04-11T01:00:14.070Z,11.60
2023-04-11T01:05:20.163Z,11.70
2023-04-11T01:10:25.127Z,11.70
2023-04-11T01:15:28.893Z,11.80
2023-04-11T01:20:34.660Z,11.80
2023-04-11T01:25:39.362Z,11.90
2023-04-11T01:30:43.354Z,12.00
2023-04-11T01:35:47.651Z,12.00
2023-04-11T01:40:52.945Z,12.00
2023-04-11T01:45:56.410Z,11.90
2023-04-11T01:51:00.136Z,12.00
2023-04-11T01:56:05.797Z,11.80
2023-04-11T02:01:09.658Z,11.40
2023-04-11T02:06:13.015Z,10.90
2023-04-11T02:11:17.683Z,10.30
2023-04-11T02:16:26.151Z,9.90
2023-04-11T02:21:29.791Z,9.60
2023-04-11T02:26:36.094Z,9.50
2023-04-11T02:31:40.209Z,9.40
2023-04-11T02:36:44.243Z,9.30
2023-04-11T02:41:49.294Z,9.30
2023-04-11T02:46:52.477Z,9.20
2023-04-11T02:51:55.723Z,9.10
2023-04-11T02:57:03.710Z,9.00
2023-04-11T03:02:07.546Z,8.90
2023-04-11T03:07:12.580Z,8.80
2023-04-11T03:12:20.087Z,8.70
2023-04-11T03:17:30.485Z,8.70
2023-04-11T03:22:34.296Z,8.70
2023-04-11T03:27:39.247Z,8.80
2023-04-11T03:32:43.873Z,8.80
2023-04-11T03:37:47.189Z,8.80
2023-04-11T03:42:52.378Z,8.90
2023-04-11T03:48:00.140Z,8.90
2023-04-11T03:53:11.491Z,9.00
2023-04-11T03:58:19.204Z,9.10
2023-04-11T04:03:23.016Z,9.20
2023-04-11T04:08:26.946Z,9.30
2023-04-11T04:13:31.577Z,9.40
2023-04-11T04:18:46.473Z,9.40
2023-04-11T04:23:50.804Z,9.50
2023-04-11T04:29:04.728Z,9.50
2023-04-11T04:34:24.582Z,9.50
2023-04-11T04:39:30.158Z,9.60
2023-04-11T04:44:35.852Z,9.60
2023-04-11T04:49:47.104Z,9.60
2023-04-11T04:54:52.362Z,9.60
2023-04-11T04:59:59.937Z,9.70
2023-04-11T05:05:04.374Z,9.80
2023-04-11T05:10:10.628Z,9.90
2023-04-11T05:15:18.124Z,9.90
2023-04-11T05:20:21.959Z,9.90
2023-04-11T05:25:27.670Z,9.80
2023-04-11T05:30:33.736Z,9.60
2023-04-11T05:35:37.592Z,9.60
2023-04-11T05:40:41.556Z,9.60
2023-04-11T05:45:48.258Z,9.70
2023-04-11T05:50:53.319Z,9.80
2023-04-11T05:55:56.993Z,9.80
2023-04-11T06:01:01.886Z,9.90
2023-04-11T06:06:05.727Z,9.90
2023-04-11T06:11:09.520Z,10.00
2023-04-11T06:16:14.648Z,10.10
2023-04-11T06:21:18.305Z,10.10
2023-04-11T06:26:22.051Z,10.20
2023-04-11T06:31:27.347Z,10.20
2023-04-11T06:36:32.049Z,10.20
2023-04-11T06:41:36.708Z,10.30
2023-04-11T06:46:41.712Z,10.30
2023-04-11T06:51:47.202Z,10.40
2023-04-11T06:56:50.735Z,10.50
2023-04-11T07:01:55.278Z,10.70
2023-04-11T07:06:58.578Z,10.70
2023-04-11T07:12:02.456Z,10.80
2023-04-11T07:17:07.019Z,10.90
2023-04-11T07:22:10.569Z,11.00
2023-04-11T07:27:14.248Z,11.10
2023-04-11T07:32:19.004Z,11.40
2023-04-11T07:37:22.732Z,11.40
2023-04-11T07:42:26.459Z,11.40
2023-04-11T07:47:31.531Z,11.50
2023-04-11T07:52:35.116Z,11.80
2023-04-11T07:57:38.698Z,12.20
2023-04-11T08:02:43.758Z,12.60
2023-04-11T08:07:47.446Z,12.90
2023-04-11T08:12:51.169Z,13.00
2023-04-11T08:17:57.187Z,13.10
2023-04-11T08:23:05.778Z,13.20
2023-04-11T08:28:11.480Z,13.20
2023-04-11T08:33:16.464Z,13.20
2023-04-11T08:38:20.340Z,13.00
2023-04-11T08:43:24.032Z,13.00
2023-04-11T08:48:29.457Z,13.30
2023-04-11T08:53:37.486Z,13.90
2023-04-11T08:58:43.472Z,14.90
2023-04-11T09:03:52.712Z,15.70
2023-04-11T09:08:56.211Z,16.20
2023-04-11T09:14:09.845Z,15.20
2023-04-11T09:19:25.288Z,14.40
2023-04-11T09:24:29.810Z,13.80
2023-04-11T09:29:40.924Z,13.40
2023-04-11T09:34:45.922Z,13.20
2023-04-11T09:39:59.492Z,13.00
2023-04-11T09:45:04.494Z,13.10
2023-04-11T09:50:09.864Z,13.40
2023-04-11T09:55:14.924Z,13.90
2023-04-11T10:00:21.819Z,14.50
2023-04-11T10:05:28.711Z,13.30
2023-04-11T10:10:32.338Z,11.40
2023-04-11T10:15:35.614Z,9.00
2023-04-11T10:20:50.400Z,8.20
2023-04-11T10:25:56.348Z,8.00
2023-04-11T10:31:01.823Z,8.30
2023-04-11T10:36:10.543Z,8.90
2023-04-11T10:41:19.750Z,9.60
2023-04-11T10:46:24.697Z,9.80
2023-04-11T10:51:31.541Z,10.00
2023-04-11T10:56:56.667Z,10.10
2023-04-11T11:02:01.466Z,10.20
2023-04-11T11:07:08.124Z,10.20
2023-04-11T11:12:12.941Z,10.40
2023-04-11T11:17:18.032Z,10.70
2023-04-11T11:22:26.162Z,11.00
2023-04-11T11:27:29.938Z,11.60
2023-04-11T11:32:33.230Z,12.10
2023-04-11T11:37:38.190Z,11.90
2023-04-11T11:42:42.403Z,11.70
2023-04-11T11:47:47.051Z,11.60
2023-04-11T11:52:52.939Z,11.90
2023-04-11T11:58:00.475Z,12.50
2023-04-11T12:03:04.471Z,12.80
2023-04-11T12:08:09.726Z,13.10
2023-04-11T12:13:14.555Z,13.20
2023-04-11T12:18:21.149Z,13.60
2023-04-11T12:23:26.228Z,13.60
2023-04-11T12:28:29.778Z,13.80
2023-04-11T12:33:33.491Z,14.30
2023-04-11T12:38:38.615Z,14.40
2023-04-11T12:43:42.349Z,14.00
2023-04-11T12:48:46.055Z,13.80
2023-04-11T12:53:53.164Z,13.70
2023-04-11T12:58:57.063Z,13.60
2023-04-11T13:04:01.219Z,13.50
2023-04-11T13:14:29.486Z,14.40
2023-04-11T13:19:33.081Z,14.50
2023-04-11T13:24:37.971Z,14.50
2023-04-11T13:29:41.853Z,14.30
2023-04-11T13:34:45.092Z,14.00
2023-04-11T13:39:50.037Z,13.30
2023-04-11T13:44:53.248Z,13.20
2023-04-11T13:49:56.778Z,13.20
2023-04-11T13:55:01.445Z,13.10
2023-04-11T14:00:11.904Z,13.00
2023-04-11T14:05:15.282Z,12.90
2023-04-11T14:10:20.000Z,12.90
2023-04-11T14:15:23.576Z,12.90
2023-04-11T14:20:27.388Z,12.90
2023-04-11T14:25:32.549Z,12.80
2023-04-11T14:30:36.541Z,12.60
2023-04-11T14:35:40.115Z,13.00
2023-04-11T14:40:45.652Z,13.10
2023-04-11T14:45:49.319Z,13.10
2023-04-11T14:50:54.773Z,13.20
2023-04-11T14:55:59.614Z,13.20
2023-04-11T15:01:03.490Z,13.20
2023-04-11T15:06:07.609Z,13.00
2023-04-11T15:11:12.145Z,13.00
2023-04-11T15:16:15.954Z,12.90
2023-04-11T15:21:20.474Z,12.80
2023-04-11T15:26:25.762Z,12.80
2023-04-11T15:31:29.021Z,12.80
2023-04-11T15:36:32.549Z,12.80
2023-04-11T15:41:37.532Z,12.90
2023-04-11T15:46:40.994Z,12.70
2023-04-11T15:51:46.011Z,12.70
2023-04-11T15:56:50.746Z,12.80
2023-04-11T16:01:54.036Z,12.70
2023-04-11T16:06:57.541Z,12.50
2023-04-11T16:12:03.081Z,12.70
2023-04-11T16:17:06.651Z,12.60
2023-04-11T16:22:10.154Z,12.40
2023-04-11T16:27:14.927Z,12.20
2023-04-11T16:32:18.235Z,12.00
2023-04-11T16:37:22.091Z,11.90
2023-04-11T16:42:27.204Z,11.80
2023-04-11T16:47:30.934Z,11.80
2023-04-11T16:52:34.454Z,11.80
2023-04-11T16:57:39.394Z,11.70
2023-04-11T17:02:42.723Z,11.60
2023-04-11T17:07:46.481Z,10.70
2023-04-11T17:12:51.751Z,9.80
2023-04-11T17:17:55.019Z,9.20
2023-04-11T17:22:58.322Z,8.70
2023-04-11T17:28:03.129Z,8.40
2023-04-11T17:33:06.374Z,8.00
2023-04-11T17:38:09.661Z,7.80
2023-04-11T17:43:14.310Z,7.60
2023-04-11T17:48:18.788Z,7.60
2023-04-11T17:53:22.342Z,7.80
2023-04-11T17:58:27.333Z,7.80
2023-04-11T18:03:35.771Z,7.90
2023-04-11T18:08:50.559Z,7.80
2023-04-11T18:13:56.726Z,7.70
2023-04-11T18:19:01.282Z,7.60
2023-04-11T18:24:05.423Z,7.50
2023-04-11T18:29:10.131Z,7.30
2023-04-11T18:34:14.188Z,7.20
2023-04-11T18:39:18.264Z,7.00
2023-04-11T18:44:23.482Z,7.10
2023-04-11T18:49:27.492Z,7.00
2023-04-11T18:54:31.401Z,6.70
2023-04-11T18:59:40.861Z,6.50
2023-04-11T19:04:47.205Z,6.40
2023-04-11T19:09:51.076Z,6.20
2023-04-11T19:14:56.171Z,6.10
2023-04-11T19:20:02.035Z,6.10
2023-04-11T19:25:06.146Z,6.10
2023-04-11T19:30:13.620Z,6.10
2023-04-11T19:35:21.796Z,6.20
2023-04-11T19:40:25.094Z,6.30
2023-04-11T19:45:31.589Z,6.40
2023-04-11T19:50:35.822Z,6.40
2023-04-11T19:55:39.018Z,6.30
2023-04-11T20:00:43.649Z,6.30
2023-04-11T20:05:47.270Z,6.30
2023-04-11T20:10:52.026Z,6.20
2023-04-11T20:15:56.818Z,6.20
2023-04-11T20:21:00.195Z,6.10
2023-04-11T20:26:03.759Z,6.00
2023-04-11T20:31:09.162Z,5.90
2023-04-11T20:36:12.552Z,5.90
2023-04-11T20:41:18.997Z,5.70
2023-04-11T20:46:24.662Z,5.70
2023-04-11T20:51:28.137Z,5.90
2023-04-11T20:56:35.148Z,5.90
2023-04-11T21:01:40.639Z,5.80
2023-04-11T21:06:44.908Z,5.70
2023-04-11T21:11:48.220Z,5.70
2023-04-11T21:16:53.479Z,5.70
2023-04-11T21:21:57.319Z,5.60
2023-04-11T21:27:01.363Z,5.70
2023-04-11T21:32:06.583Z,5.60
2023-04-11T21:37:10.519Z,5.60
2023-04-11T21:42:13.800Z,5.50
2023-04-11T21:47:19.167Z,5.50
2023-04-11T21:52:22.903Z,5.30
2023-04-11T21:57:26.636Z,5.30
2023-04-11T22:02:31.930Z,5.40
2023-04-11T22:07:39.458Z,5.30
2023-04-11T22:12:45.919Z,5.40
2023-04-11T22:17:54.762Z,5.30
2023-04-11T22:22:58.183Z,5.30
2023-04-11T22:28:01.487Z,5.20
2023-04-11T22:33:06.199Z,5.20
2023-04-11T22:38:09.955Z,5.20
2023-04-11T22:43:13.267Z,5.10
2023-04-11T22:48:17.877Z,5.00
2023-04-11T22:53:21.166Z,4.90
2023-04-11T22:58:24.437Z,5.00
2023-04-11T23:03:30.037Z,5.00
2023-04-11T23:08:33.028Z,5.10
2023-04-11T23:13:36.763Z,5.10
2023-04-11T23:18:41.375Z,5.20
2023-04-11T23:23:45.300Z,5.10
2023-04-11T23:28:48.908Z,5.10
2023-04-11T23:33:53.970Z,5.10
2023-04-11T23:38:58.364Z,5.10
2023-04-11T23:44:02.099Z,5.10
2023-04-11T23:49:07.104Z,5.10
2023-04-11T23:54:10.747Z,5.10
2023-04-11T23:59:14.357Z,5.10
